createdAt,value
2017-08-02T00:00:00.259Z,20.90
2017-08-02T00:02:28.491Z,21.00
2017-08-02T00:04:56.098Z,21.00
2017-08-02T00:07:24.376Z,20.80
2017-08-02T00:09:52.659Z,20.80
2017-08-02T00:12:21.274Z,20.90
2017-08-02T00:14:48.753Z,20.90
2017-08-02T00:17:16.242Z,20.70
2017-08-02T00:19:44.476Z,20.90
2017-08-02T00:22:11.983Z,20.90
2017-08-02T00:24:40.264Z,20.80
2017-08-02T00:27:08.548Z,20.80
2017-08-02T00:29:36.815Z,20.80
2017-08-02T00:32:05.066Z,20.80
2017-08-02T00:34:32.547Z,20.80
2017-08-02T00:37:00.832Z,20.80
2017-08-02T00:39:29.084Z,20.80
2017-08-02T00:41:56.562Z,20.80
2017-08-02T00:44:24.832Z,20.90
2017-08-02T00:46:53.112Z,20.80
2017-08-02T00:49:21.385Z,20.80
2017-08-02T00:51:49.659Z,20.70
2017-08-02T00:54:17.210Z,20.70
2017-08-02T00:56:44.779Z,20.60
2017-08-02T00:59:13.055Z,20.70
2017-08-02T01:01:41.335Z,20.70
2017-08-02T01:04:09.612Z,20.70
2017-08-02T01:06:38.686Z,20.50
2017-08-02T01:09:06.168Z,20.50
2017-08-02T01:11:34.418Z,20.50
2017-08-02T01:14:01.889Z,20.50
2017-08-02T01:16:29.461Z,20.40
2017-08-02T01:18:57.699Z,20.50
2017-08-02T01:21:25.203Z,20.50
2017-08-02T01:23:53.574Z,20.60
2017-08-02T01:26:21.849Z,20.60
2017-08-02T01:28:50.119Z,20.60
2017-08-02T01:31:18.393Z,20.70
2017-08-02T01:33:46.661Z,20.70
2017-08-02T01:36:14.125Z,20.70
2017-08-02T01:38:42.398Z,20.70
2017-08-02T01:41:09.963Z,20.70
2017-08-02T01:43:38.223Z,20.70
2017-08-02T01:46:05.687Z,20.70
2017-08-02T01:48:33.259Z,20.60
2017-08-02T01:51:01.533Z,20.60
2017-08-02T01:53:29.807Z,20.70
2017-08-02T01:55:57.296Z,20.60
2017-08-02T01:58:24.836Z,20.60
2017-08-02T02:00:53.102Z,20.60
2017-08-02T02:03:21.378Z,20.50
2017-08-02T02:05:49.633Z,20.50
2017-08-02T02:08:17.223Z,20.40
2017-08-02T02:10:45.483Z,20.60
2017-08-02T02:13:13.051Z,20.60
2017-08-02T02:15:41.335Z,20.60
2017-08-02T02:18:09.610Z,20.60
2017-08-02T02:20:37.138Z,20.50
2017-08-02T02:23:04.614Z,20.50
2017-08-02T02:25:32.133Z,20.50
2017-08-02T02:27:59.642Z,20.50
2017-08-02T02:30:27.922Z,20.40
2017-08-02T02:32:56.171Z,20.40
2017-08-02T02:35:23.943Z,20.40
2017-08-02T02:37:51.552Z,20.30
2017-08-02T02:40:19.018Z,20.30
2017-08-02T02:42:46.543Z,20.20
2017-08-02T02:45:14.809Z,20.10
2017-08-02T02:47:43.086Z,20.20
2017-08-02T02:50:11.346Z,20.20
2017-08-02T02:52:38.860Z,20.10
2017-08-02T02:55:06.331Z,20.20
2017-08-02T02:57:33.841Z,20.10
2017-08-02T03:00:02.110Z,20.10
2017-08-02T03:02:30.387Z,20.10
2017-08-02T03:04:58.664Z,20.10
2017-08-02T03:07:26.935Z,20.10
2017-08-02T03:09:54.492Z,20.10
2017-08-02T03:12:22.049Z,20.20
2017-08-02T03:14:49.545Z,20.30
2017-08-02T03:17:17.079Z,20.30
2017-08-02T03:19:45.363Z,20.20
2017-08-02T03:22:13.634Z,20.30
2017-08-02T03:24:41.896Z,20.20
2017-08-02T03:27:09.469Z,20.20
2017-08-02T03:29:37.747Z,20.30
2017-08-02T03:32:06.021Z,20.20
2017-08-02T03:34:34.290Z,20.30
2017-08-02T03:37:01.856Z,20.30
2017-08-02T03:39:30.094Z,20.20
2017-08-02T03:41:57.689Z,20.20
2017-08-02T03:44:25.977Z,20.30
2017-08-02T03:46:54.243Z,20.20
2017-08-02T03:49:22.535Z,20.20
2017-08-02T03:51:50.799Z,20.30
2017-08-02T03:54:19.069Z,20.20
2017-08-02T03:56:47.346Z,20.30
2017-08-02T03:59:15.592Z,20.30
2017-08-02T04:01:43.090Z,20.30
2017-08-02T04:04:11.371Z,20.30
2017-08-02T04:06:39.607Z,20.30
2017-08-02T04:09:07.199Z,20.30
2017-08-02T04:11:35.472Z,20.30
2017-08-02T04:14:03.718Z,20.30
2017-08-02T04:16:31.187Z,20.40
2017-08-02T04:18:58.685Z,20.40
2017-08-02T04:21:26.224Z,20.40
2017-08-02T04:23:54.487Z,20.40
2017-08-02T04:26:21.959Z,20.40
2017-08-02T04:28:50.225Z,20.40
2017-08-02T04:31:17.790Z,20.40
2017-08-02T04:33:46.066Z,20.40
2017-08-02T04:36:14.342Z,20.40
2017-08-02T04:38:41.903Z,20.40
2017-08-02T04:41:10.179Z,20.30
2017-08-02T04:43:38.458Z,20.30
2017-08-02T04:46:06.743Z,20.30
2017-08-02T04:48:35.019Z,20.40
2017-08-02T04:51:03.279Z,20.40
2017-08-02T04:53:30.765Z,20.40
2017-08-02T04:55:58.303Z,20.40
2017-08-02T04:58:26.548Z,20.50
2017-08-02T05:00:54.022Z,20.50
2017-08-02T05:03:22.041Z,20.50
2017-08-02T05:05:49.557Z,20.50
2017-08-02T05:08:17.122Z,20.40
2017-08-02T05:10:45.395Z,20.30
2017-08-02T05:13:12.970Z,20.30
2017-08-02T05:18:35.112Z,20.40
2017-08-02T05:23:56.346Z,20.30
2017-08-02T05:26:24.594Z,20.30
2017-08-02T05:28:52.117Z,20.30
2017-08-02T05:31:19.654Z,20.30
2017-08-02T05:33:47.217Z,20.50
2017-08-02T05:36:14.767Z,20.50
2017-08-02T05:38:43.039Z,20.60
2017-08-02T05:41:12.329Z,20.60
2017-08-02T05:43:40.607Z,20.70
2017-08-02T05:46:08.889Z,20.80
2017-08-02T05:48:37.167Z,20.80
2017-08-02T05:51:05.438Z,20.90
2017-08-02T05:53:33.715Z,21.00
2017-08-02T05:56:01.223Z,21.00
2017-08-02T05:58:28.694Z,21.00
2017-08-02T06:00:56.179Z,21.00
2017-08-02T06:03:23.745Z,20.90
2017-08-02T06:05:52.021Z,21.00
2017-08-02T06:08:20.269Z,21.00
2017-08-02T06:10:47.747Z,21.00
2017-08-02T06:13:15.318Z,21.00
2017-08-02T06:18:37.847Z,21.30
2017-08-02T06:21:05.362Z,21.20
2017-08-02T06:23:32.841Z,21.30
2017-08-02T06:26:00.359Z,21.30
2017-08-02T06:28:28.640Z,21.40
2017-08-02T06:30:56.904Z,21.60
2017-08-02T06:33:24.399Z,21.60
2017-08-02T06:35:51.931Z,21.60
2017-08-02T06:38:20.211Z,21.80
2017-08-02T06:40:48.490Z,21.70
2017-08-02T06:43:16.758Z,21.70
2017-08-02T06:45:45.036Z,21.80
2017-08-02T06:48:13.282Z,21.90
2017-08-02T06:50:40.875Z,21.90
2017-08-02T06:53:09.148Z,22.10
2017-08-02T06:55:37.431Z,22.20
2017-08-02T06:58:05.707Z,22.20
2017-08-02T07:03:46.823Z,22.30
2017-08-02T07:09:08.034Z,22.50
2017-08-02T07:14:30.359Z,22.70
2017-08-02T07:16:57.842Z,22.70
2017-08-02T07:19:26.106Z,23.00
2017-08-02T07:21:53.667Z,23.00
2017-08-02T07:24:21.143Z,23.10
2017-08-02T07:26:49.506Z,23.30
2017-08-02T07:29:17.063Z,23.20
2017-08-02T07:31:44.632Z,23.40
2017-08-02T07:34:12.877Z,23.40
2017-08-02T07:36:40.444Z,23.40
2017-08-02T07:39:07.920Z,23.60
2017-08-02T07:41:36.214Z,23.80
2017-08-02T07:44:04.478Z,24.00
2017-08-02T07:46:32.753Z,24.00
2017-08-02T07:49:01.009Z,23.90
2017-08-02T07:51:28.591Z,24.00
2017-08-02T07:53:56.829Z,23.80
2017-08-02T07:56:24.299Z,23.80
2017-08-02T07:58:51.898Z,24.00
2017-08-02T08:01:20.156Z,23.80
2017-08-02T08:03:48.434Z,24.00
2017-08-02T08:06:16.715Z,24.10
2017-08-02T08:08:44.964Z,24.20
2017-08-02T08:11:12.454Z,24.20
2017-08-02T08:13:40.711Z,24.30
2017-08-02T08:16:08.212Z,24.30
2017-08-02T08:18:36.555Z,24.40
2017-08-02T08:21:04.851Z,24.80
2017-08-02T08:23:32.408Z,24.70
2017-08-02T08:25:59.903Z,24.90
2017-08-02T08:28:27.393Z,25.00
2017-08-02T08:30:54.963Z,25.10
2017-08-02T08:33:23.246Z,25.10
2017-08-02T08:35:51.524Z,25.10
2017-08-02T08:38:19.797Z,24.90
2017-08-02T08:40:48.072Z,24.70
2017-08-02T08:43:16.330Z,24.70
2017-08-02T08:45:43.916Z,24.70
2017-08-02T08:48:12.191Z,24.80
2017-08-02T08:50:40.561Z,24.90
2017-08-02T08:53:08.964Z,24.90
2017-08-02T08:55:37.280Z,24.90
2017-08-02T08:58:04.784Z,25.20
2017-08-02T09:00:33.074Z,25.50
2017-08-02T09:03:00.605Z,25.50
2017-08-02T09:05:28.182Z,25.40
2017-08-02T09:07:56.419Z,25.80
2017-08-02T09:10:23.907Z,25.70
2017-08-02T09:12:51.502Z,25.80
2017-08-02T09:15:19.038Z,25.80
2017-08-02T09:17:47.303Z,25.80
2017-08-02T09:20:16.163Z,25.70
2017-08-02T09:22:43.758Z,25.70
2017-08-02T09:25:11.994Z,25.60
2017-08-02T09:27:39.495Z,25.50
2017-08-02T09:30:07.754Z,25.80
2017-08-02T09:32:35.582Z,25.80
2017-08-02T09:35:03.087Z,26.00
2017-08-02T09:37:31.371Z,26.00
2017-08-02T09:39:59.652Z,25.90
2017-08-02T09:42:27.933Z,25.80
2017-08-02T09:44:55.483Z,25.80
2017-08-02T09:47:23.035Z,25.90
2017-08-02T09:49:51.296Z,26.30
2017-08-02T09:52:20.500Z,26.20
2017-08-02T09:54:47.964Z,26.10
2017-08-02T09:57:16.246Z,26.10
2017-08-02T09:59:44.518Z,26.30
2017-08-02T10:02:12.809Z,26.30
2017-08-02T10:04:40.351Z,26.40
2017-08-02T10:07:08.630Z,26.00
2017-08-02T10:09:36.915Z,25.80
2017-08-02T10:12:11.842Z,25.70
2017-08-02T10:14:40.114Z,25.40
2017-08-02T10:17:07.678Z,25.40
2017-08-02T10:19:35.956Z,25.50
2017-08-02T10:22:04.331Z,25.80
2017-08-02T10:24:33.273Z,26.00
2017-08-02T10:27:01.576Z,26.00
2017-08-02T10:29:29.159Z,26.30
2017-08-02T10:31:57.444Z,26.80
2017-08-02T10:34:25.822Z,27.00
2017-08-02T10:36:54.683Z,26.90
2017-08-02T10:39:22.277Z,26.90
2017-08-02T10:41:50.519Z,27.10
2017-08-02T10:44:18.110Z,27.10
2017-08-02T10:46:52.831Z,27.30
2017-08-02T10:49:21.661Z,27.20
2017-08-02T10:51:49.163Z,27.20
2017-08-02T10:54:16.750Z,27.30
2017-08-02T10:56:44.993Z,27.40
2017-08-02T10:59:12.581Z,27.40
2017-08-02T11:01:40.835Z,27.20
2017-08-02T11:04:08.405Z,27.20
2017-08-02T11:06:36.681Z,27.10
2017-08-02T11:09:04.360Z,27.10
2017-08-02T11:11:32.635Z,27.10
2017-08-02T11:14:00.895Z,27.30
2017-08-02T11:16:28.385Z,27.20
2017-08-02T11:18:55.924Z,27.20
2017-08-02T11:21:24.201Z,27.10
2017-08-02T11:23:52.480Z,27.30
2017-08-02T11:26:20.763Z,27.30
2017-08-02T11:28:49.122Z,27.30
2017-08-02T11:31:17.391Z,27.20
2017-08-02T11:33:44.955Z,27.20
2017-08-02T11:36:13.045Z,27.20
2017-08-02T11:38:41.309Z,27.40
2017-08-02T11:41:09.588Z,27.70
2017-08-02T11:43:37.858Z,27.80
2017-08-02T11:46:06.166Z,27.30
2017-08-02T11:48:34.401Z,27.30
2017-08-02T11:51:01.972Z,27.30
2017-08-02T11:53:30.237Z,27.40
2017-08-02T11:55:57.722Z,27.40
2017-08-02T11:58:25.947Z,27.60
2017-08-02T12:00:53.439Z,27.60
2017-08-02T12:03:21.717Z,27.90
2017-08-02T12:05:49.997Z,28.10
2017-08-02T12:08:18.274Z,28.30
2017-08-02T12:10:46.551Z,28.70
2017-08-02T12:13:14.820Z,29.00
2017-08-02T12:15:43.511Z,29.00
2017-08-02T12:18:11.785Z,29.00
2017-08-02T12:20:40.068Z,28.90
2017-08-02T12:23:07.619Z,28.90
2017-08-02T12:25:35.902Z,28.10
2017-08-02T12:28:04.153Z,27.80
2017-08-02T12:30:31.730Z,27.80
2017-08-02T12:32:59.215Z,28.00
2017-08-02T12:35:26.724Z,28.10
2017-08-02T12:37:54.315Z,28.20
2017-08-02T12:40:23.166Z,28.20
2017-08-02T12:42:50.650Z,28.20
2017-08-02T12:45:18.215Z,28.40
2017-08-02T12:47:46.469Z,28.60
2017-08-02T12:50:13.996Z,28.60
2017-08-02T12:52:41.518Z,28.60
2017-08-02T12:55:09.889Z,28.50
2017-08-02T12:57:51.377Z,28.70
2017-08-02T13:00:19.655Z,28.70
2017-08-02T13:02:47.942Z,28.90
2017-08-02T13:05:17.211Z,28.90
2017-08-02T13:07:44.799Z,28.90
2017-08-02T13:10:13.091Z,28.90
2017-08-02T13:12:40.631Z,28.90
2017-08-02T13:15:08.894Z,29.30
2017-08-02T13:17:36.458Z,29.30
2017-08-02T13:20:04.713Z,29.20
2017-08-02T13:22:32.315Z,29.20
2017-08-02T13:25:00.566Z,29.20
2017-08-02T13:27:28.071Z,29.10
2017-08-02T13:29:55.588Z,29.20
2017-08-02T13:32:23.088Z,29.30
2017-08-02T13:34:50.592Z,29.20
2017-08-02T13:37:18.085Z,29.10
2017-08-02T13:42:38.636Z,29.10
2017-08-02T13:45:06.121Z,29.10
2017-08-02T13:47:34.622Z,29.10
2017-08-02T13:50:02.933Z,29.00
2017-08-02T13:52:30.447Z,29.00
2017-08-02T13:54:58.738Z,29.30
2017-08-02T13:57:26.996Z,29.40
2017-08-02T13:59:54.579Z,29.40
2017-08-02T14:02:22.826Z,29.60
2017-08-02T14:04:56.247Z,29.60
2017-08-02T14:07:24.513Z,29.60
2017-08-02T14:09:51.993Z,29.60
2017-08-02T14:12:19.533Z,29.60
2017-08-02T14:14:47.806Z,29.80
2017-08-02T14:17:16.068Z,29.80
2017-08-02T14:19:43.661Z,29.80
2017-08-02T14:22:12.027Z,29.40
2017-08-02T14:24:40.305Z,29.30
2017-08-02T14:27:08.554Z,29.30
2017-08-02T14:29:36.974Z,29.30
2017-08-02T14:32:04.520Z,29.30
2017-08-02T14:34:32.789Z,29.30
2017-08-02T14:37:01.021Z,29.50
2017-08-02T14:39:28.529Z,29.50
2017-08-02T14:41:56.777Z,29.50
2017-08-02T14:44:24.270Z,29.50
2017-08-02T14:46:52.510Z,29.40
2017-08-02T14:49:20.012Z,29.30
2017-08-02T14:51:47.549Z,29.40
2017-08-02T14:54:15.784Z,29.30
2017-08-02T14:56:43.282Z,29.30
2017-08-02T14:59:11.564Z,29.10
2017-08-02T15:01:39.846Z,29.30
2017-08-02T15:04:08.124Z,29.30
2017-08-02T15:06:36.385Z,29.50
2017-08-02T15:09:03.873Z,29.50
2017-08-02T15:11:31.401Z,29.50
2017-08-02T15:13:59.679Z,29.70
2017-08-02T15:16:27.253Z,29.70
2017-08-02T15:18:55.502Z,29.80
2017-08-02T15:21:23.072Z,29.80
2017-08-02T15:23:50.561Z,29.70
2017-08-02T15:26:18.024Z,29.70
2017-08-02T15:28:45.559Z,29.70
2017-08-02T15:31:13.815Z,29.60
2017-08-02T15:33:41.302Z,29.60
2017-08-02T15:36:08.850Z,29.70
2017-08-02T15:38:37.134Z,29.50
2017-08-02T15:41:05.395Z,29.30
2017-08-02T15:43:32.952Z,29.30
2017-08-02T15:46:01.243Z,29.20
2017-08-02T15:48:29.516Z,29.20
2017-08-02T15:50:57.782Z,29.20
2017-08-02T15:53:25.248Z,29.20
2017-08-02T15:55:53.530Z,29.30
2017-08-02T15:58:21.801Z,29.50
2017-08-02T16:00:50.073Z,29.60
2017-08-02T16:03:18.344Z,29.80
2017-08-02T16:05:45.907Z,29.80
2017-08-02T16:08:14.176Z,29.90
2017-08-02T16:10:41.750Z,29.90
2017-08-02T16:13:10.021Z,30.00
2017-08-02T16:15:38.301Z,30.10
2017-08-02T16:18:06.538Z,30.00
2017-08-02T16:20:34.141Z,30.00
2017-08-02T16:23:02.377Z,29.70
2017-08-02T16:25:29.866Z,29.70
2017-08-02T16:27:58.147Z,29.60
2017-08-02T16:30:26.414Z,29.70
2017-08-02T16:32:53.984Z,29.70
2017-08-02T16:35:22.261Z,29.80
2017-08-02T16:37:50.527Z,29.80
2017-08-02T16:40:19.009Z,29.80
2017-08-02T16:42:47.296Z,29.90
2017-08-02T16:45:15.570Z,29.80
2017-08-02T16:47:43.841Z,30.00
2017-08-02T16:50:12.095Z,30.00
2017-08-02T16:52:39.612Z,30.00
2017-08-02T16:55:07.137Z,30.00
2017-08-02T16:57:35.375Z,30.30
2017-08-02T17:00:02.857Z,30.30
2017-08-02T17:02:30.417Z,30.80
2017-08-02T17:04:57.976Z,31.30
2017-08-02T17:07:26.472Z,31.70
2017-08-02T17:09:54.732Z,31.00
2017-08-02T17:12:22.305Z,31.00
2017-08-02T17:14:50.581Z,30.40
2017-08-02T17:17:18.140Z,30.40
2017-08-02T17:19:46.425Z,31.30
2017-08-02T17:22:14.699Z,31.60
2017-08-02T17:24:42.966Z,31.20
2017-08-02T17:27:10.533Z,31.20
2017-08-02T17:29:38.842Z,30.10
2017-08-02T17:32:06.374Z,30.10
2017-08-02T17:34:34.640Z,29.30
2017-08-02T17:37:02.130Z,29.30
2017-08-02T17:39:29.655Z,29.00
2017-08-02T17:41:57.935Z,28.50
2017-08-02T17:44:26.180Z,28.40
2017-08-02T17:46:53.685Z,28.30
2017-08-02T17:49:21.238Z,28.10
2017-08-02T17:51:49.472Z,27.80
2017-08-02T17:54:17.067Z,27.80
2017-08-02T17:56:45.336Z,27.60
2017-08-02T17:59:13.604Z,27.50
2017-08-02T18:01:41.189Z,27.50
2017-08-02T18:04:08.743Z,27.40
2017-08-02T18:06:37.010Z,27.20
2017-08-02T18:09:04.578Z,27.20
2017-08-02T18:11:32.913Z,27.10
2017-08-02T18:14:00.406Z,27.10
2017-08-02T18:16:27.934Z,27.00
2017-08-02T18:18:55.522Z,26.90
2017-08-02T18:21:23.816Z,26.80
2017-08-02T18:23:52.051Z,26.70
2017-08-02T18:26:19.583Z,26.70
2017-08-02T18:28:47.102Z,26.60
2017-08-02T18:31:15.472Z,26.40
2017-08-02T18:33:43.094Z,26.40
2017-08-02T18:36:10.592Z,26.40
2017-08-02T18:38:38.878Z,26.20
2017-08-02T18:41:07.154Z,26.10
2017-08-02T18:43:35.482Z,26.00
2017-08-02T18:46:02.959Z,26.00
2017-08-02T18:48:30.447Z,25.90
2017-08-02T18:50:58.778Z,25.70
2017-08-02T18:53:26.336Z,25.70
2017-08-02T18:55:53.939Z,25.70
2017-08-02T18:58:22.250Z,25.50
2017-08-02T19:00:49.773Z,25.50
2017-08-02T19:03:17.267Z,25.40
2017-08-02T19:05:44.872Z,25.30
2017-08-02T19:08:12.516Z,25.20
2017-08-02T19:10:40.010Z,25.10
2017-08-02T19:16:02.415Z,24.90
2017-08-02T19:18:29.922Z,24.90
2017-08-02T19:21:07.423Z,24.90
2017-08-02T19:23:35.695Z,24.70
2017-08-02T19:26:03.239Z,24.60
2017-08-02T19:28:30.825Z,24.40
2017-08-02T19:30:59.074Z,24.50
2017-08-02T19:33:26.671Z,24.40
2017-08-02T19:35:54.287Z,24.50
2017-08-02T19:38:21.774Z,24.40
2017-08-02T19:40:50.119Z,24.30
2017-08-02T19:43:17.701Z,24.30
2017-08-02T19:45:46.044Z,24.30
2017-08-02T19:48:13.540Z,24.30
2017-08-02T19:50:41.815Z,24.20
2017-08-02T19:53:09.389Z,24.20
2017-08-02T19:55:37.696Z,24.00
2017-08-02T19:58:05.172Z,24.00
2017-08-02T20:00:32.753Z,24.00
2017-08-02T20:03:00.228Z,23.80
2017-08-02T20:05:27.770Z,23.70
2017-08-02T20:07:55.410Z,23.70
2017-08-02T20:10:22.997Z,23.60
2017-08-02T20:12:50.519Z,23.50
2017-08-02T20:15:17.995Z,23.50
2017-08-02T20:17:45.489Z,23.50
2017-08-02T20:20:13.740Z,23.50
2017-08-02T20:22:41.303Z,23.50
2017-08-02T20:25:09.863Z,23.60
2017-08-02T20:27:37.427Z,23.60
2017-08-02T20:30:04.940Z,23.60
2017-08-02T20:32:33.387Z,23.50
2017-08-02T20:35:01.679Z,23.50
2017-08-02T20:37:29.995Z,23.50
2017-08-02T20:39:57.524Z,23.50
2017-08-02T20:42:25.854Z,23.40
2017-08-02T20:44:53.523Z,23.40
2017-08-02T20:47:21.010Z,23.30
2017-08-02T20:49:49.286Z,23.20
2017-08-02T20:52:16.918Z,23.20
2017-08-02T20:54:44.410Z,23.20
2017-08-02T20:57:12.684Z,23.00
2017-08-02T20:59:41.000Z,22.90
2017-08-02T21:02:08.570Z,22.90
2017-08-02T21:04:36.134Z,22.80
2017-08-02T21:07:03.663Z,22.90
2017-08-02T21:09:31.240Z,23.00
2017-08-02T21:11:58.722Z,23.00
2017-08-02T21:14:26.298Z,23.00
2017-08-02T21:16:54.031Z,23.00
2017-08-02T21:19:21.530Z,22.90
2017-08-02T21:21:49.822Z,22.80
2017-08-02T21:24:18.062Z,22.80
2017-08-02T21:26:45.558Z,22.80
2017-08-02T21:29:13.827Z,22.80
2017-08-02T21:31:42.083Z,22.70
2017-08-02T21:34:09.661Z,22.70
2017-08-02T21:36:37.956Z,22.70
2017-08-02T21:39:05.459Z,22.70
2017-08-02T21:41:32.964Z,22.70
2017-08-02T21:44:01.292Z,22.60
2017-08-02T21:46:28.793Z,22.60
2017-08-02T21:48:56.356Z,22.50
2017-08-02T21:51:24.623Z,22.60
2017-08-02T21:53:52.208Z,22.50
2017-08-02T21:56:19.747Z,22.50
2017-08-02T21:58:48.049Z,22.60
2017-08-02T22:01:28.348Z,22.60
2017-08-02T22:03:55.957Z,22.60
2017-08-02T22:06:24.227Z,22.50
2017-08-02T22:08:52.491Z,22.50
2017-08-02T22:11:19.999Z,22.50
2017-08-02T22:13:47.518Z,22.50
2017-08-02T22:16:15.783Z,22.50
2017-08-02T22:18:43.354Z,22.40
2017-08-02T22:21:10.913Z,22.40
2017-08-02T22:23:39.185Z,22.40
2017-08-02T22:26:07.474Z,22.40
2017-08-02T22:28:35.748Z,22.40
2017-08-02T22:31:04.026Z,22.30
2017-08-02T22:33:32.293Z,22.30
2017-08-02T22:36:00.580Z,22.20
2017-08-02T22:38:28.845Z,22.20
2017-08-02T22:40:57.092Z,22.30
2017-08-02T22:43:24.717Z,22.30
2017-08-02T22:45:52.250Z,22.30
2017-08-02T22:48:20.644Z,22.20
2017-08-02T22:50:48.177Z,22.10
2017-08-02T22:53:16.453Z,22.20
2017-08-02T22:55:44.694Z,22.10
2017-08-02T22:58:12.307Z,22.10
2017-08-02T23:00:39.852Z,22.10
2017-08-02T23:03:08.098Z,22.00
2017-08-02T23:05:35.695Z,22.00
2017-08-02T23:08:03.979Z,21.80
2017-08-02T23:10:32.354Z,21.80
2017-08-02T23:13:00.618Z,21.90
2017-08-02T23:15:28.892Z,21.90
2017-08-02T23:17:57.197Z,21.90
2017-08-02T23:20:24.718Z,21.90
2017-08-02T23:22:52.289Z,22.00
2017-08-02T23:25:20.550Z,22.00
2017-08-02T23:27:48.029Z,21.90
2017-08-02T23:30:16.293Z,21.80
2017-08-02T23:32:44.539Z,21.90
2017-08-02T23:35:12.055Z,21.80
2017-08-02T23:37:39.628Z,21.90
2017-08-02T23:40:07.106Z,21.90
2017-08-02T23:42:34.580Z,21.90
2017-08-02T23:45:02.101Z,21.90
2017-08-02T23:47:29.619Z,21.80
2017-08-02T23:49:57.190Z,21.80
2017-08-02T23:52:25.455Z,21.90
2017-08-02T23:54:52.947Z,21.80
2017-08-02T23:57:20.477Z,21.80
2017-08-02T23:59:48.729Z,21.80
